Time;durP1;ratioP1;P1;durP2;ratioP2;P2;SDS_P1;SDS_P2;PMS_P1;PMS_P2;Temp;Humidity;BMP_temperature;BMP_pressure;BME280_temperature;BME280_humidity;BME280_pressure;Samples;Min_cycle;Max_cycle;Signal;HPM_P1;HPM_P2
2022/05/27 00:01:27;;;;;;;1.75;1.42;;;16.00;99.90;;;;;;5095084;28;20205;-49
2022/05/27 00:03:54;;;;;;;2.63;1.60;;;16.00;99.90;;;;;;5094859;28;20161;-50
2022/05/27 00:06:20;;;;;;;4.72;1.73;;;16.00;99.90;;;;;;5094772;28;20252;-49
2022/05/27 00:08:46;;;;;;;4.05;1.80;;;16.00;99.90;;;;;;5094784;28;20295;-47
2022/05/27 00:11:14;;;;;;;2.33;1.77;;;15.90;99.90;;;;;;5076527;28;20602;-50
2022/05/27 00:13:41;;;;;;;6.63;2.28;;;15.90;99.90;;;;;;5094697;28;20252;-49
2022/05/27 00:16:07;;;;;;;2.35;1.20;;;15.90;99.90;;;;;;5094611;28;20162;-50
2022/05/27 00:18:33;;;;;;;3.92;1.83;;;15.90;99.90;;;;;;5094499;28;20168;-49
2022/05/27 00:21:01;;;;;;;1.92;1.48;;;15.90;99.90;;;;;;5094795;28;20189;-48
2022/05/27 00:23:27;;;;;;;2.65;1.98;;;15.80;99.90;;;;;;5076516;28;20165;-50
2022/05/27 00:25:52;;;;;;;3.40;2.10;;;15.80;99.90;;;;;;5094604;28;20197;-50
2022/05/27 00:28:18;;;;;;;3.13;2.08;;;15.80;99.90;;;;;;5094359;28;20614;-49
2022/05/27 00:30:44;;;;;;;4.45;1.90;;;15.80;99.90;;;;;;5094317;28;20169;-49
2022/05/27 00:33:10;;;;;;;3.70;2.28;;;15.80;99.90;;;;;;5094276;28;20181;-49
2022/05/27 00:35:36;;;;;;;4.45;2.13;;;15.80;99.90;;;;;;5094278;28;20256;-48
2022/05/27 00:38:02;;;;;;;1.80;1.50;;;15.80;99.90;;;;;;5094210;28;20220;-48
2022/05/27 00:40:41;;;;;;;3.15;2.25;;;15.80;99.90;;;;;;5094330;28;20196;-48
2022/05/27 00:43:07;;;;;;;5.30;2.40;;;15.80;99.90;;;;;;5093949;28;20181;-49
2022/05/27 00:45:36;;;;;;;3.20;2.28;;;15.80;99.90;;;;;;5094058;28;20170;-48
2022/05/27 00:48:06;;;;;;;4.50;2.50;;;15.80;99.90;;;;;;5093996;28;20248;-48
2022/05/27 00:50:36;;;;;;;5.85;2.70;;;15.80;99.90;;;;;;5094179;28;20252;-48
2022/05/27 00:53:04;;;;;;;2.33;2.00;;;15.80;99.90;;;;;;5093957;28;20217;-48
2022/05/27 00:55:33;;;;;;;3.90;2.80;;;15.70;99.90;;;;;;5094243;28;20169;-49
2022/05/27 00:58:05;;;;;;;4.50;2.60;;;15.70;99.90;;;;;;5094180;28;20161;-48
2022/05/27 01:00:31;;;;;;;4.53;2.65;;;15.70;99.90;;;;;;5094039;28;20218;-49
2022/05/27 01:02:58;;;;;;;5.05;2.75;;;15.70;99.90;;;;;;5093573;28;20213;-48
2022/05/27 01:05:25;;;;;;;6.03;2.40;;;15.70;99.90;;;;;;5093687;28;20626;-50
2022/05/27 01:08:03;;;;;;;4.28;2.70;;;15.70;99.90;;;;;;5093810;28;20181;-49
2022/05/27 01:10:37;;;;;;;4.75;2.33;;;15.70;99.90;;;;;;5094035;28;20545;-49
2022/05/27 01:13:25;;;;;;;2.65;1.75;;;15.60;99.90;;;;;;5093534;28;20180;-49
2022/05/27 01:16:11;;;;;;;4.53;2.63;;;15.60;99.90;;;;;;5093487;28;20223;-49
2022/05/27 01:21:49;;;;;;;3.15;2.50;;;15.60;99.90;;;;;;5093489;28;20704;-48
2022/05/27 01:24:37;;;;;;;4.07;2.38;;;15.60;99.90;;;;;;5093253;28;20597;-49
2022/05/27 01:27:42;;;;;;;3.97;2.45;;;15.60;99.90;;;;;;5093210;28;20166;-48
2022/05/27 01:30:22;;;;;;;4.80;2.42;;;15.50;99.90;;;;;;5074883;28;20184;-49
2022/05/27 01:33:06;;;;;;;4.05;2.25;;;15.60;99.90;;;;;;5093367;28;20529;-49
2022/05/27 01:35:41;;;;;;;9.90;3.30;;;15.60;99.90;;;;;;5093355;28;20168;-49
2022/05/27 01:38:18;;;;;;;3.13;2.70;;;15.50;99.90;;;;;;5092998;28;20259;-50
2022/05/27 01:41:12;;;;;;;6.57;2.80;;;15.50;99.90;;;;;;5092942;28;20176;-49
2022/05/27 01:43:48;;;;;;;6.35;2.90;;;15.50;99.90;;;;;;5093174;28;20303;-49
2022/05/27 01:46:17;;;;;;;4.22;3.33;;;15.50;99.90;;;;;;5092852;28;20510;-49
2022/05/27 01:49:14;;;;;;;4.47;3.63;;;15.50;99.90;;;;;;5093082;28;20169;-50
2022/05/27 01:51:52;;;;;;;3.92;2.80;;;15.50;99.90;;;;;;5092253;28;20359;-50
2022/05/27 01:54:47;;;;;;;4.22;3.03;;;15.40;99.90;;;;;;5092671;28;20644;-50
2022/05/27 01:57:19;;;;;;;6.47;3.05;;;15.50;99.90;;;;;;5092731;28;20256;-52
2022/05/27 01:59:56;;;;;;;3.10;2.80;;;15.50;99.90;;;;;;5092672;28;20169;-51
2022/05/27 02:02:23;;;;;;;7.22;3.08;;;15.40;99.90;;;;;;5092487;28;20209;-51
2022/05/27 02:04:58;;;;;;;3.25;2.65;;;15.50;99.90;;;;;;5092474;28;20539;-51
2022/05/27 02:07:46;;;;;;;12.20;2.70;;;15.50;99.90;;;;;;5092816;28;20169;-51
2022/05/27 02:10:38;;;;;;;5.22;2.70;;;15.40;99.90;;;;;;5051282;28;20185;-51
2022/05/27 02:13:11;;;;;;;2.60;2.13;;;15.40;99.90;;;;;;5081569;28;20185;-50
2022/05/27 02:15:43;;;;;;;6.55;2.78;;;15.40;99.90;;;;;;5092403;28;20177;-50
2022/05/27 02:18:20;;;;;;;2.80;2.20;;;15.40;99.90;;;;;;5092421;28;20570;-50
2022/05/27 02:20:52;;;;;;;3.75;2.10;;;15.40;99.90;;;;;;5092311;28;20165;-51
2022/05/27 02:23:30;;;;;;;5.38;2.20;;;15.50;99.90;;;;;;5092362;28;20168;-51
2022/05/27 02:25:59;;;;;;;4.72;2.55;;;15.40;99.90;;;;;;5092232;28;20168;-50
2022/05/27 02:28:29;;;;;;;3.17;1.75;;;15.40;99.90;;;;;;5092154;28;20166;-51
2022/05/27 02:31:00;;;;;;;5.55;2.28;;;15.40;99.90;;;;;;5092222;28;20173;-51
2022/05/27 02:36:18;;;;;;;4.38;1.92;;;15.40;99.90;;;;;;5092465;28;20184;-49
2022/05/27 02:38:45;;;;;;;8.55;3.08;;;15.30;99.90;;;;;;5092292;28;20183;-51
2022/05/27 02:41:37;;;;;;;4.63;2.35;;;15.30;99.90;;;;;;5091969;28;20257;-50
2022/05/27 02:44:17;;;;;;;4.65;2.67;;;15.20;99.90;;;;;;5092147;28;20169;-50
2022/05/27 02:46:51;;;;;;;8.95;2.33;;;15.20;99.90;;;;;;5092082;28;20625;-51
2022/05/27 02:49:41;;;;;;;4.72;2.47;;;15.20;99.90;;;;;;5092037;28;20174;-51
2022/05/27 02:52:33;;;;;;;3.78;2.35;;;15.10;99.90;;;;;;5091898;28;20301;-51
2022/05/27 02:55:17;;;;;;;4.47;2.60;;;15.10;99.90;;;;;;5092350;28;20162;-50
2022/05/27 02:57:49;;;;;;;3.53;2.30;;;15.00;99.90;;;;;;5092132;28;20252;-51
2022/05/27 03:00:19;;;;;;;6.30;2.38;;;15.00;99.90;;;;;;5091869;28;20157;-52
2022/05/27 03:02:46;;;;;;;4.28;2.60;;;14.90;99.90;;;;;;5092562;28;20197;-51
2022/05/27 03:05:15;;;;;;;3.80;2.47;;;14.80;99.90;;;;;;5096029;28;20630;-51
2022/05/27 03:07:47;;;;;;;9.45;2.75;;;14.70;99.90;;;;;;5077861;28;20212;-51
2022/05/27 03:10:35;;;;;;;8.30;2.70;;;14.60;99.90;;;;;;5095893;28;20172;-51
2022/05/27 03:13:16;;;;;;;5.25;2.90;;;14.60;99.90;;;;;;5096319;28;20177;-51
2022/05/27 03:16:07;;;;;;;5.25;2.90;;;14.60;99.90;;;;;;5095829;28;20157;-51
2022/05/27 03:18:38;;;;;;;5.80;3.45;;;14.50;99.90;;;;;;5095813;28;20157;-51
2022/05/27 03:21:47;;;;;;;4.28;2.70;;;14.40;99.90;;;;;;5095617;28;20688;-51
2022/05/27 03:24:21;;;;;;;4.55;2.90;;;14.30;99.90;;;;;;5095635;28;20249;-51
2022/05/27 03:27:02;;;;;;;6.50;3.33;;;14.20;99.90;;;;;;5095552;28;20189;-51
2022/05/27 03:29:33;;;;;;;5.72;3.10;;;14.30;99.90;;;;;;5095805;28;20161;-51
2022/05/27 03:32:36;;;;;;;3.88;2.53;;;14.30;99.90;;;;;;5095800;28;20634;-51
2022/05/27 03:35:13;;;;;;;4.85;2.70;;;14.20;99.90;;;;;;5095386;28;20165;-50
2022/05/27 03:38:01;;;;;;;3.40;2.72;;;14.10;99.90;;;;;;5095321;28;20173;-51
2022/05/27 03:40:32;;;;;;;3.70;2.97;;;14.10;99.90;;;;;;5095517;28;20226;-50
2022/05/27 03:42:58;;;;;;;5.10;3.45;;;14.10;99.90;;;;;;5095771;28;20213;-51
2022/05/27 03:45:24;;;;;;;5.45;2.90;;;14.10;99.90;;;;;;5095209;28;20169;-50
2022/05/27 03:47:51;;;;;;;5.07;3.40;;;14.00;99.90;;;;;;5095092;28;20189;-51
2022/05/27 03:50:22;;;;;;;3.47;3.17;;;14.00;99.90;;;;;;5110823;28;20648;-51
2022/05/27 03:52:51;;;;;;;9.68;3.33;;;14.00;99.90;;;;;;5094888;28;20217;-49
2022/05/27 03:55:20;;;;;;;6.18;3.15;;;14.00;99.90;;;;;;5094968;28;20256;-50
2022/05/27 03:57:46;;;;;;;4.10;3.00;;;14.00;99.90;;;;;;5094953;28;20181;-50
2022/05/27 04:00:14;;;;;;;4.70;3.30;;;14.00;99.90;;;;;;5094936;28;20165;-50
2022/05/27 04:02:40;;;;;;;6.32;3.50;;;14.10;99.90;;;;;;5094865;28;20254;-49
2022/05/27 04:05:08;;;;;;;5.25;2.80;;;14.00;99.90;;;;;;5094855;28;20162;-50
2022/05/27 04:07:34;;;;;;;4.65;2.72;;;14.00;99.90;;;;;;5094776;28;20536;-50
2022/05/27 04:09:59;;;;;;;6.57;3.08;;;14.00;99.90;;;;;;5095088;28;20248;-49
2022/05/27 04:12:25;;;;;;;5.10;3.10;;;14.10;99.90;;;;;;5094759;28;20169;-50
2022/05/27 04:14:52;;;;;;;3.20;2.88;;;14.10;99.90;;;;;;5094134;28;20257;-49
2022/05/27 04:17:32;;;;;;;6.10;3.13;;;14.10;99.90;;;;;;5094723;28;20191;-50
2022/05/27 04:20:00;;;;;;;3.42;2.90;;;14.10;99.90;;;;;;5095141;28;20169;-49
2022/05/27 04:22:26;;;;;;;4.75;3.55;;;14.10;99.90;;;;;;5094420;28;20299;-51
2022/05/27 04:24:52;;;;;;;4.30;3.25;;;14.10;99.90;;;;;;5094483;28;20153;-50
2022/05/27 04:27:19;;;;;;;5.28;3.28;;;14.10;99.90;;;;;;5094481;28;20630;-51
2022/05/27 04:29:48;;;;;;;5.47;3.60;;;14.10;99.90;;;;;;5094505;28;20286;-50
2022/05/27 04:32:14;;;;;;;5.25;2.90;;;14.10;99.90;;;;;;5094278;28;20173;-51
2022/05/27 04:34:40;;;;;;;5.82;4.13;;;14.10;99.90;;;;;;5094616;28;20176;-51
2022/05/27 04:37:07;;;;;;;6.18;4.00;;;14.20;99.90;;;;;;5094473;28;20194;-50
2022/05/27 04:39:33;;;;;;;7.43;4.13;;;14.10;99.90;;;;;;5094251;28;20528;-51
2022/05/27 04:41:58;;;;;;;5.97;3.63;;;14.10;99.90;;;;;;5094332;28;20201;-50
2022/05/27 04:44:24;;;;;;;8.13;4.22;;;14.10;99.90;;;;;;5094078;28;20166;-50
2022/05/27 04:46:50;;;;;;;5.65;4.97;;;14.10;99.90;;;;;;5094235;28;20513;-49
2022/05/27 04:52:00;;;;;;;6.38;4.75;;;14.20;99.90;;;;;;5094298;28;20224;-50
2022/05/27 04:54:29;;;;;;;5.45;4.30;;;14.20;99.90;;;;;;5093860;28;20161;-50
2022/05/27 04:56:56;;;;;;;7.47;4.40;;;14.10;99.90;;;;;;5094061;28;20166;-51
2022/05/27 04:59:21;;;;;;;7.65;5.47;;;14.00;99.90;;;;;;5094036;28;20219;-49
2022/05/27 05:01:47;;;;;;;5.63;4.88;;;14.00;99.90;;;;;;5093652;28;20208;-50
2022/05/27 05:04:13;;;;;;;8.30;5.90;;;14.10;99.90;;;;;;5093713;28;20557;-50
2022/05/27 05:06:38;;;;;;;6.93;5.38;;;14.10;99.90;;;;;;5093676;28;20170;-50
2022/05/27 05:09:04;;;;;;;5.82;5.30;;;14.10;99.90;;;;;;5093633;28;20165;-49
2022/05/27 05:11:30;;;;;;;5.32;4.82;;;14.10;99.90;;;;;;5093777;28;20165;-50
2022/05/27 05:13:56;;;;;;;8.05;5.57;;;14.20;99.90;;;;;;5093384;28;20181;-51
2022/05/27 05:16:21;;;;;;;5.63;4.63;;;14.20;99.90;;;;;;5093223;28;20646;-51
2022/05/27 05:18:47;;;;;;;7.32;5.50;;;14.20;99.90;;;;;;5093435;28;20169;-51
2022/05/27 05:21:13;;;;;;;8.15;5.20;;;14.30;99.90;;;;;;5075190;28;20189;-52
2022/05/27 05:23:38;;;;;;;9.02;6.20;;;14.30;99.90;;;;;;5093298;28;20179;-52
2022/05/27 05:26:04;;;;;;;8.50;6.10;;;14.30;99.90;;;;;;5092665;28;20525;-51
2022/05/27 05:28:30;;;;;;;7.65;5.75;;;14.30;99.90;;;;;;5093654;28;20169;-51
2022/05/27 05:30:55;;;;;;;8.50;5.97;;;14.20;99.90;;;;;;5093126;28;20169;-51
2022/05/27 05:33:21;;;;;;;9.27;5.68;;;14.20;99.90;;;;;;5093150;28;20214;-51
2022/05/27 05:35:46;;;;;;;8.68;5.63;;;14.20;99.90;;;;;;5093108;28;20530;-50
2022/05/27 05:38:12;;;;;;;9.88;6.32;;;14.20;99.90;;;;;;5093273;28;20170;-51
2022/05/27 05:40:38;;;;;;;7.55;5.50;;;14.20;99.90;;;;;;5092990;28;20157;-51
2022/05/27 05:43:04;;;;;;;7.10;5.63;;;14.20;99.90;;;;;;5092870;28;20258;-51
2022/05/27 05:45:30;;;;;;;7.13;5.82;;;14.30;99.90;;;;;;5093154;28;20170;-51
2022/05/27 05:47:55;;;;;;;7.78;5.55;;;14.30;99.90;;;;;;5092841;28;20158;-51
2022/05/27 05:50:21;;;;;;;7.53;5.13;;;14.30;99.90;;;;;;5092721;28;20193;-51
2022/05/27 05:52:47;;;;;;;6.25;5.05;;;14.30;99.90;;;;;;5092579;28;20213;-51
2022/05/27 05:55:14;;;;;;;4.78;3.83;;;14.20;99.90;;;;;;5092775;28;20169;-51
2022/05/27 05:57:41;;;;;;;5.60;4.68;;;14.20;99.90;;;;;;5092956;28;20165;-51
2022/05/27 06:00:09;;;;;;;4.13;3.30;;;14.30;99.90;;;;;;5074550;28;20180;-49
2022/05/27 06:02:34;;;;;;;2.35;2.03;;;14.30;99.90;;;;;;5092407;28;20288;-50
2022/05/27 06:05:03;;;;;;;2.70;2.13;;;14.30;99.90;;;;;;5092853;28;20588;-50
2022/05/27 06:07:30;;;;;;;1.90;1.70;;;14.30;99.90;;;;;;5092959;28;20180;-50
2022/05/27 06:09:55;;;;;;;1.85;1.75;;;14.40;99.90;;;;;;5092445;28;20218;-51
2022/05/27 06:12:23;;;;;;;4.43;1.83;;;14.20;99.90;;;;;;5092405;28;20509;-50
2022/05/27 06:14:50;;;;;;;3.63;1.70;;;14.30;99.90;;;;;;5092358;28;20697;-51
2022/05/27 06:17:16;;;;;;;1.70;1.60;;;14.30;99.90;;;;;;5092405;28;20204;-48
2022/05/27 06:19:42;;;;;;;3.42;1.60;;;14.20;99.90;;;;;;5092416;28;20193;-51
2022/05/27 06:22:07;;;;;;;2.55;1.90;;;14.20;99.90;;;;;;5092448;28;20217;-50
2022/05/27 06:24:33;;;;;;;4.80;1.90;;;14.20;99.90;;;;;;5092548;28;20162;-49
2022/05/27 06:26:59;;;;;;;1.55;1.40;;;14.20;99.90;;;;;;5091666;28;20170;-49
2022/05/27 06:34:53;;;;;;;5.03;2.22;;;14.10;99.90;;;;;;5090842;28;20253;-53
2022/05/27 06:37:21;;;;;;;4.30;2.20;;;14.10;99.90;;;;;;5090422;28;20252;-52
2022/05/27 06:39:48;;;;;;;2.13;1.92;;;14.10;99.90;;;;;;5090891;28;20205;-46
2022/05/27 06:42:14;;;;;;;4.50;1.80;;;14.10;99.90;;;;;;5090775;28;20316;-52
2022/05/27 06:44:40;;;;;;;3.90;2.20;;;14.00;99.90;;;;;;5090776;28;20214;-53
2022/05/27 06:47:08;;;;;;;4.53;2.17;;;14.10;99.90;;;;;;5090794;28;20172;-52
2022/05/27 06:49:36;;;;;;;4.15;2.00;;;14.00;99.90;;;;;;5090938;28;20511;-53
2022/05/27 06:52:01;;;;;;;5.82;2.58;;;14.10;99.90;;;;;;5090494;28;20217;-52
2022/05/27 06:54:27;;;;;;;6.30;2.50;;;14.20;99.90;;;;;;5091201;28;20256;-53
2022/05/27 06:56:52;;;;;;;3.88;2.33;;;14.20;99.90;;;;;;5090396;28;20248;-53
2022/05/27 06:59:20;;;;;;;6.03;2.22;;;14.30;99.90;;;;;;5090148;28;20543;-52
2022/05/27 07:01:46;;;;;;;5.30;3.20;;;14.30;99.90;;;;;;5090177;28;20201;-52
2022/05/27 07:04:12;;;;;;;4.53;2.90;;;14.30;99.90;;;;;;5090766;28;20167;-52
2022/05/27 07:06:46;;;;;;;4.90;2.75;;;14.30;99.90;;;;;;5090450;28;20184;-52
2022/05/27 07:09:13;;;;;;;5.90;3.30;;;14.40;99.90;;;;;;5090709;28;20178;-52
2022/05/27 07:11:41;;;;;;;5.53;3.15;;;14.40;99.90;;;;;;5090387;28;20240;-52
2022/05/27 07:14:07;;;;;;;4.00;2.60;;;14.50;99.90;;;;;;5090566;28;20173;-52
2022/05/27 07:16:33;;;;;;;4.82;2.92;;;14.40;99.90;;;;;;5090303;28;20162;-52
2022/05/27 07:18:58;;;;;;;3.63;2.65;;;14.40;99.90;;;;;;5090571;28;20204;-52
2022/05/27 07:21:25;;;;;;;2.28;1.73;;;14.50;99.90;;;;;;5090281;28;20723;-52
2022/05/27 07:23:55;;;;;;;5.50;1.90;;;14.50;99.90;;;;;;5088848;28;20234;-52
2022/05/27 07:26:22;;;;;;;3.00;2.70;;;14.60;99.90;;;;;;5090252;28;20644;-52
2022/05/27 07:28:48;;;;;;;2.70;1.65;;;14.70;99.90;;;;;;5072198;28;20154;-52
2022/05/27 07:31:14;;;;;;;2.10;1.83;;;14.70;99.90;;;;;;5090254;28;20181;-51
2022/05/27 07:33:40;;;;;;;2.38;1.60;;;14.80;99.90;;;;;;5072160;28;20177;-51
2022/05/27 07:36:06;;;;;;;2.45;1.63;;;14.80;99.90;;;;;;5090429;28;20210;-51
2022/05/27 07:38:31;;;;;;;2.42;1.73;;;14.80;99.90;;;;;;5090133;28;20166;-51
2022/05/27 07:40:57;;;;;;;2.35;1.60;;;14.90;99.90;;;;;;5090402;28;20177;-52
2022/05/27 07:43:22;;;;;;;4.30;1.60;;;15.20;99.90;;;;;;5090504;28;20585;-51
2022/05/27 07:45:49;;;;;;;4.28;2.05;;;15.30;99.90;;;;;;5090358;28;20687;-51
2022/05/27 07:48:15;;;;;;;4.38;1.80;;;15.40;99.90;;;;;;5090291;28;20173;-52
2022/05/27 07:50:41;;;;;;;2.95;1.90;;;15.50;99.90;;;;;;5093636;28;20510;-52
2022/05/27 07:53:07;;;;;;;2.67;1.80;;;15.50;99.90;;;;;;5093576;28;20225;-52
2022/05/27 07:55:32;;;;;;;5.40;2.00;;;15.60;99.90;;;;;;5093603;28;20177;-50
2022/05/27 07:57:58;;;;;;;2.25;2.05;;;16.00;99.90;;;;;;5093992;28;20195;-52
2022/05/27 08:00:32;;;;;;;5.05;2.13;;;16.00;99.90;;;;;;5093605;28;20170;-52
2022/05/27 08:02:58;;;;;;;3.47;2.38;;;16.00;99.90;;;;;;5093724;28;20208;-49
2022/05/27 08:05:26;;;;;;;4.72;2.38;;;15.90;99.90;;;;;;5093754;28;20161;-47
2022/05/27 08:07:55;;;;;;;6.32;3.08;;;16.10;99.90;;;;;;5093656;28;20193;-50
2022/05/27 08:10:23;;;;;;;4.05;2.78;;;16.20;99.90;;;;;;5075324;28;20166;-50
2022/05/27 08:12:49;;;;;;;2.70;2.50;;;16.20;99.90;;;;;;5093224;28;20207;-50
2022/05/27 08:15:15;;;;;;;3.95;2.60;;;16.20;99.90;;;;;;5092999;28;20219;-51
2022/05/27 08:17:41;;;;;;;4.30;2.97;;;16.50;99.90;;;;;;5093211;28;20177;-49
2022/05/27 08:20:09;;;;;;;4.97;2.88;;;16.70;99.90;;;;;;5093251;28;20170;-50
2022/05/27 08:22:36;;;;;;;3.72;3.42;;;16.80;99.90;;;;;;5092987;28;20744;-50
2022/05/27 08:25:02;;;;;;;5.10;4.20;;;16.70;99.90;;;;;;5093310;28;20185;-50
2022/05/27 08:27:27;;;;;;;10.07;4.78;;;16.70;99.90;;;;;;5093563;28;20181;-50
2022/05/27 08:29:53;;;;;;;8.48;5.07;;;16.70;99.90;;;;;;5093052;28;20170;-49
2022/05/27 08:32:18;;;;;;;6.20;4.47;;;16.60;99.90;;;;;;5092934;28;20169;-50
2022/05/27 08:40:32;;;;;;;7.18;4.18;;;17.60;99.90;;;;;;5093151;28;20227;-49
2022/05/27 08:43:09;;;;;;;7.57;4.38;;;17.90;99.90;;;;;;5093027;28;20209;-50
2022/05/27 08:45:53;;;;;;;7.03;5.05;;;17.90;99.90;;;;;;5092764;28;20586;-50
2022/05/27 08:48:21;;;;;;;7.32;4.53;;;17.50;99.90;;;;;;5092613;28;20171;-50
2022/05/27 08:50:51;;;;;;;5.00;4.43;;;17.80;99.90;;;;;;5092529;28;20260;-50
2022/05/27 08:53:26;;;;;;;9.70;5.20;;;18.00;99.90;;;;;;5092517;28;20185;-49
2022/05/27 09:01:42;;;;;;;8.93;5.18;;;18.30;99.90;;;;;;5092478;28;20310;-52
2022/05/27 09:04:27;;;;;;;7.38;4.60;;;18.70;99.90;;;;;;5074375;28;20260;-51
2022/05/27 09:07:01;;;;;;;9.63;4.43;;;18.90;99.90;;;;;;5092424;28;20165;-49
2022/05/27 09:09:29;;;;;;;7.68;4.47;;;18.70;99.90;;;;;;5074250;28;20598;-52
2022/05/27 09:12:25;;;;;;;8.60;4.30;;;19.00;99.90;;;;;;5092147;28;20656;-51
2022/05/27 09:15:17;;;;;;;9.73;4.22;;;18.90;99.90;;;;;;5092226;28;20168;-53
2022/05/27 09:17:48;;;;;;;4.60;3.70;;;19.10;99.90;;;;;;5092078;28;20159;-53
2022/05/27 09:20:36;;;;;;;7.55;3.85;;;19.10;99.90;;;;;;5092334;28;20173;-53
2022/05/27 09:23:13;;;;;;;7.75;4.55;;;19.40;99.90;;;;;;5092041;28;20205;-50
2022/05/27 09:26:18;;;;;;;7.90;3.90;;;19.00;99.90;;;;;;5091999;28;20169;-53
2022/05/27 09:29:04;;;;;;;7.53;3.58;;;18.70;99.90;;;;;;5092152;28;20169;-51
2022/05/27 09:31:38;;;;;;;7.80;3.80;;;18.60;99.90;;;;;;5092165;28;20176;-53
2022/05/27 09:34:05;;;;;;;9.80;3.72;;;18.50;99.90;;;;;;5091766;28;20161;-52
2022/05/27 09:36:36;;;;;;;8.60;4.15;;;18.70;99.90;;;;;;5092382;28;20200;-51
2022/05/27 09:39:05;;;;;;;7.43;3.78;;;18.30;99.90;;;;;;5091898;28;20248;-51
2022/05/27 09:41:46;;;;;;;7.93;4.13;;;18.20;99.90;;;;;;5092022;28;20297;-52
2022/05/27 09:44:26;;;;;;;5.20;3.88;;;18.60;99.90;;;;;;5091689;28;20210;-52
2022/05/27 09:46:53;;;;;;;7.22;3.35;;;18.90;99.90;;;;;;5091575;28;20165;-52
2022/05/27 09:49:18;;;;;;;6.45;3.20;;;19.20;99.90;;;;;;5091505;28;20172;-52
2022/05/27 09:51:44;;;;;;;9.02;3.65;;;19.20;99.90;;;;;;5091534;28;20213;-51
2022/05/27 09:54:34;;;;;;;10.25;3.90;;;19.60;99.90;;;;;;5091587;28;20238;-52
2022/05/27 09:57:11;;;;;;;7.97;3.78;;;19.50;99.90;;;;;;5091892;28;20206;-47
2022/05/27 09:59:39;;;;;;;7.75;3.38;;;19.60;99.90;;;;;;5091309;28;20173;-50
2022/05/27 10:02:37;;;;;;;6.85;3.58;;;19.40;99.90;;;;;;5091221;28;20208;-48
2022/05/27 10:05:05;;;;;;;6.38;3.42;;;19.40;99.90;;;;;;5091629;28;20176;-47
2022/05/27 10:07:53;;;;;;;7.70;3.20;;;19.50;99.90;;;;;;5091488;28;20168;-51
2022/05/27 10:10:32;;;;;;;4.25;3.47;;;19.70;99.90;;;;;;5091224;28;20169;-51
2022/05/27 10:13:23;;;;;;;7.10;3.88;;;19.60;99.90;;;;;;5090982;28;20176;-45
2022/05/27 10:15:49;;;;;;;6.47;2.78;;;19.90;99.90;;;;;;5091044;28;20229;-47
2022/05/27 10:18:19;;;;;;;10.00;3.70;;;20.30;99.90;;;;;;5090978;28;20169;-47
2022/05/27 10:21:03;;;;;;;5.40;2.83;;;20.40;99.90;;;;;;5091231;28;20302;-46
2022/05/27 10:23:38;;;;;;;3.90;2.55;;;19.80;99.90;;;;;;5091221;28;20181;-46
2022/05/27 10:26:20;;;;;;;4.60;3.00;;;19.50;99.90;;;;;;5073085;28;20577;-48
2022/05/27 10:29:06;;;;;;;5.40;3.75;;;19.90;99.90;;;;;;5090683;28;20648;-48
2022/05/27 10:31:32;;;;;;;5.18;3.47;;;20.00;99.90;;;;;;5090943;28;20259;-47
2022/05/27 10:34:00;;;;;;;3.60;2.60;;;20.10;99.90;;;;;;5091105;28;20165;-48
2022/05/27 10:36:34;;;;;;;5.75;3.53;;;20.10;99.90;;;;;;5091143;28;20165;-49
2022/05/27 10:39:04;;;;;;;5.00;2.97;;;20.40;99.90;;;;;;5091036;28;20172;-49
2022/05/27 10:41:51;;;;;;;4.95;2.97;;;20.60;99.90;;;;;;5090671;28;20216;-49
2022/05/27 10:44:47;;;;;;;7.60;2.85;;;20.50;99.90;;;;;;5090962;28;20529;-51
2022/05/27 10:47:52;;;;;;;7.90;3.28;;;21.00;99.90;;;;;;5090862;28;20169;-50
2022/05/27 10:50:57;;;;;;;5.40;3.03;;;21.20;99.90;;;;;;5090550;28;20173;-50
2022/05/27 10:53:45;;;;;;;4.75;2.50;;;20.90;99.90;;;;;;5072363;28;20677;-49
2022/05/27 10:56:31;;;;;;;5.45;2.65;;;20.60;99.90;;;;;;5090655;28;20534;-48
2022/05/27 11:02:09;;;;;;;4.53;2.40;;;20.00;99.90;;;;;;5076375;28;20731;-51
2022/05/27 11:04:53;;;;;;;3.92;2.20;;;19.70;99.90;;;;;;5090712;28;20169;-49
2022/05/27 11:07:38;;;;;;;6.55;2.72;;;19.90;99.90;;;;;;5090732;28;20183;-49
2022/05/27 11:10:12;;;;;;;4.43;2.13;;;20.50;99.90;;;;;;5090713;28;20173;-50
2022/05/27 11:15:51;;;;;;;5.90;2.85;;;20.90;99.90;;;;;;5090633;28;20181;-49
2022/05/27 11:18:38;;;;;;;6.18;2.58;;;20.60;99.90;;;;;;5090468;28;20173;-49
2022/05/27 11:21:16;;;;;;;3.58;2.58;;;20.30;99.90;;;;;;5090288;28;20165;-50
2022/05/27 11:24:10;;;;;;;6.85;2.45;;;19.90;99.90;;;;;;5091535;28;20177;-50
2022/05/27 11:26:35;;;;;;;4.22;2.20;;;19.80;99.90;;;;;;5094394;28;20165;-51
2022/05/27 11:29:04;;;;;;;4.55;2.55;;;20.10;99.90;;;;;;5094220;28;20173;-48
2022/05/27 11:31:44;;;;;;;8.52;2.55;;;20.40;99.90;;;;;;5094426;28;20653;-50
2022/05/27 11:34:25;;;;;;;4.60;2.45;;;20.50;99.90;;;;;;5094370;28;20169;-49
2022/05/27 11:37:29;;;;;;;5.57;2.38;;;20.70;99.90;;;;;;5094025;28;20169;-50
2022/05/27 11:40:26;;;;;;;6.72;2.83;;;20.70;99.90;;;;;;5093995;28;20531;-50
2022/05/27 11:43:01;;;;;;;9.65;2.60;;;20.90;99.90;;;;;;5093911;28;20262;-49
2022/05/27 11:45:29;;;;;;;3.65;2.50;;;20.90;99.90;;;;;;5094012;28;20169;-49
2022/05/27 11:47:59;;;;;;;7.88;2.50;;;20.90;99.90;;;;;;5093840;28;20214;-50
2022/05/27 11:50:59;;;;;;;10.77;2.95;;;21.10;99.90;;;;;;5094009;28;20242;-51
2022/05/27 11:53:34;;;;;;;10.88;3.22;;;21.30;99.90;;;;;;5080020;28;20272;-50
2022/05/27 11:56:16;;;;;;;9.43;2.80;;;20.80;99.90;;;;;;5093923;28;20176;-51
2022/05/27 11:59:09;;;;;;;9.50;3.00;;;20.20;99.90;;;;;;5093602;28;20622;-49
2022/05/27 12:01:38;;;;;;;6.40;2.78;;;20.50;99.90;;;;;;5093457;28;20201;-51
2022/05/27 12:04:39;;;;;;;13.75;2.53;;;20.90;99.90;;;;;;5093887;28;20586;-51
2022/05/27 12:07:25;;;;;;;7.13;2.47;;;20.50;99.90;;;;;;5055280;28;20205;-50
2022/05/27 12:10:08;;;;;;;9.68;2.72;;;20.10;99.90;;;;;;5093378;28;20177;-51
2022/05/27 12:12:55;;;;;;;6.28;2.40;;;19.90;99.90;;;;;;5093287;28;20249;-51
2022/05/27 12:15:34;;;;;;;5.80;2.28;;;20.00;99.90;;;;;;5093234;28;20189;-51
2022/05/27 12:18:01;;;;;;;6.45;2.30;;;20.20;99.90;;;;;;5093465;28;20166;-51
2022/05/27 12:20:31;;;;;;;7.10;2.60;;;20.00;99.90;;;;;;5093547;28;20457;-51
2022/05/27 12:23:00;;;;;;;8.02;2.72;;;20.30;99.90;;;;;;5093240;28;20208;-51
2022/05/27 12:25:29;;;;;;;7.85;2.45;;;20.00;99.90;;;;;;5093001;28;20161;-51
2022/05/27 12:27:58;;;;;;;20.33;2.65;;;20.30;99.90;;;;;;5092940;28;20540;-51
2022/05/27 12:30:34;;;;;;;11.02;2.53;;;20.60;99.90;;;;;;5092714;28;20182;-51
2022/05/27 12:33:00;;;;;;;8.93;2.90;;;20.70;99.90;;;;;;5093247;28;20169;-52
2022/05/27 12:35:44;;;;;;;8.02;2.50;;;20.90;99.90;;;;;;5092589;28;20166;-51
2022/05/27 12:38:25;;;;;;;10.38;3.03;;;20.80;99.90;;;;;;5074872;28;20175;-51
2022/05/27 12:40:55;;;;;;;8.75;2.88;;;21.10;99.90;;;;;;5093274;28;20627;-51
2022/05/27 12:43:30;;;;;;;9.27;3.15;;;20.80;99.90;;;;;;5092723;28;20247;-51
2022/05/27 12:46:01;;;;;;;10.00;2.83;;;20.90;99.90;;;;;;5092927;28;20168;-52
2022/05/27 12:48:28;;;;;;;6.88;2.42;;;21.10;99.90;;;;;;5092973;28;20169;-51
2022/05/27 12:51:00;;;;;;;10.10;2.22;;;21.10;99.90;;;;;;5074259;28;20243;-51
2022/05/27 12:53:45;;;;;;;15.10;3.17;;;21.30;99.90;;;;;;5092741;28;20638;-51
2022/05/27 13:02:21;;;;;;;8.02;2.70;;;21.60;99.90;;;;;;5092338;28;20216;-49
2022/05/27 13:04:52;;;;;;;8.98;3.05;;;21.30;99.90;;;;;;5092611;28;20546;-49
2022/05/27 13:07:44;;;;;;;7.22;2.55;;;21.30;99.90;;;;;;5092028;28;20607;-50
2022/05/27 13:10:18;;;;;;;8.40;2.58;;;20.90;99.90;;;;;;5047613;28;20536;-48
2022/05/27 13:12:47;;;;;;;7.90;2.58;;;20.40;99.90;;;;;;5092086;28;20169;-49
2022/05/27 13:15:31;;;;;;;10.38;2.30;;;20.10;99.90;;;;;;5092329;28;20165;-48
2022/05/27 13:18:35;;;;;;;9.73;2.72;;;20.10;99.90;;;;;;5092608;28;20568;-48
2022/05/27 13:21:12;;;;;;;8.25;2.35;;;20.20;99.90;;;;;;5092338;28;20244;-48
2022/05/27 13:24:11;;;;;;;6.35;2.08;;;20.50;99.90;;;;;;5092151;28;20204;-50
2022/05/27 13:26:51;;;;;;;7.68;2.10;;;20.80;99.90;;;;;;5091810;28;20165;-50
2022/05/27 13:29:26;;;;;;;5.60;2.10;;;21.10;99.90;;;;;;5073541;28;20268;-48
2022/05/27 13:32:09;;;;;;;7.28;2.45;;;21.20;99.90;;;;;;5091666;28;20641;-49
2022/05/27 13:34:48;;;;;;;8.13;2.15;;;21.20;99.90;;;;;;5091696;28;20177;-50
2022/05/27 13:37:35;;;;;;;10.55;3.03;;;21.40;99.90;;;;;;5091616;28;20161;-49
2022/05/27 13:40:09;;;;;;;7.72;2.75;;;21.30;99.90;;;;;;5091778;28;20641;-48
2022/05/27 13:42:41;;;;;;;7.07;2.95;;;21.40;99.90;;;;;;5091319;28;20254;-49
2022/05/27 13:45:14;;;;;;;13.57;2.80;;;21.30;99.10;;;;;;5091894;28;20161;-50
2022/05/27 13:47:46;;;;;;;8.90;2.65;;;20.90;98.50;;;;;;5090770;28;20629;-49
2022/05/27 13:50:33;;;;;;;9.00;2.55;;;21.10;99.90;;;;;;5091490;28;20240;-49
2022/05/27 13:53:14;;;;;;;8.07;2.83;;;21.00;99.40;;;;;;5091563;28;20219;-49
2022/05/27 13:55:40;;;;;;;15.32;3.13;;;21.10;98.40;;;;;;5073150;28;20313;-49